createdAt,value
2017-11-10T00:00:15.198Z,23.83
2017-11-10T00:02:41.745Z,23.90
2017-11-10T00:05:08.157Z,23.45
2017-11-10T00:07:34.569Z,22.67
2017-11-10T00:10:01.807Z,23.43
2017-11-10T00:12:28.950Z,21.53
2017-11-10T00:14:55.388Z,24.12
2017-11-10T00:17:21.793Z,23.73
2017-11-10T00:19:48.220Z,23.80
2017-11-10T00:22:14.681Z,23.03
2017-11-10T00:24:41.087Z,20.80
2017-11-10T00:27:07.528Z,22.10
2017-11-10T00:29:34.788Z,22.45
2017-11-10T00:32:01.236Z,20.13
2017-11-10T00:34:27.640Z,22.50
2017-11-10T00:36:54.178Z,22.43
2017-11-10T00:39:20.609Z,22.40
2017-11-10T00:41:47.019Z,23.35
2017-11-10T00:44:13.497Z,21.62
2017-11-10T00:46:39.926Z,23.07
2017-11-10T00:49:06.349Z,21.70
2017-11-10T00:51:32.768Z,21.33
2017-11-10T00:53:59.183Z,22.98
2017-11-10T00:56:25.598Z,20.62
2017-11-10T00:58:52.000Z,22.87
2017-11-10T01:01:19.246Z,21.35
2017-11-10T01:03:45.653Z,21.73
2017-11-10T01:06:12.113Z,21.20
2017-11-10T01:08:38.536Z,20.80
2017-11-10T01:11:04.980Z,22.77
2017-11-10T01:13:31.393Z,20.43
2017-11-10T01:15:57.834Z,21.83
2017-11-10T01:18:24.241Z,21.37
2017-11-10T01:20:50.674Z,22.43
2017-11-10T01:23:17.138Z,19.97
2017-11-10T01:25:43.537Z,22.37
2017-11-10T01:28:10.112Z,20.60
2017-11-10T01:30:36.650Z,22.17
2017-11-10T01:33:03.102Z,22.20
2017-11-10T01:35:29.541Z,19.50
2017-11-10T01:37:56.725Z,21.03
2017-11-10T01:40:23.207Z,20.77
2017-11-10T01:42:49.701Z,20.47
2017-11-10T01:45:16.370Z,23.67
2017-11-10T01:47:42.848Z,19.97
2017-11-10T01:50:09.344Z,17.70
2017-11-10T01:52:36.591Z,20.20
2017-11-10T01:55:14.237Z,19.63
2017-11-10T01:57:40.685Z,18.90
2017-11-10T02:00:07.228Z,20.50
2017-11-10T02:02:33.829Z,20.77
2017-11-10T02:05:00.262Z,22.85
2017-11-10T02:07:26.681Z,21.70
2017-11-10T02:09:53.968Z,21.85
2017-11-10T02:12:20.415Z,23.83
2017-11-10T02:14:46.880Z,22.47
2017-11-10T02:17:13.293Z,24.90
2017-11-10T02:19:39.769Z,23.27
2017-11-10T02:22:07.010Z,23.45
2017-11-10T02:24:34.295Z,23.12
2017-11-10T02:27:00.777Z,23.90
2017-11-10T02:29:27.245Z,23.62
2017-11-10T02:31:53.725Z,23.05
2017-11-10T02:34:20.321Z,24.30
2017-11-10T02:36:46.764Z,24.65
2017-11-10T02:39:13.254Z,24.83
2017-11-10T02:41:39.825Z,22.90
2017-11-10T02:44:08.444Z,24.83
2017-11-10T02:46:36.907Z,25.73
2017-11-10T02:49:03.392Z,23.62
2017-11-10T02:51:29.973Z,24.60
2017-11-10T02:53:56.419Z,24.30
2017-11-10T02:56:22.865Z,23.87
2017-11-10T02:58:49.326Z,23.50
2017-11-10T03:01:15.858Z,24.15
2017-11-10T03:03:42.305Z,22.50
2017-11-10T03:06:09.477Z,22.83
2017-11-10T03:08:35.913Z,24.87
2017-11-10T03:11:03.494Z,24.08
2017-11-10T03:13:29.969Z,22.70
2017-11-10T03:15:56.508Z,23.60
2017-11-10T03:18:22.961Z,22.40
2017-11-10T03:20:50.222Z,22.50
2017-11-10T03:23:16.648Z,24.27
2017-11-10T03:25:43.865Z,22.47
2017-11-10T03:28:10.518Z,22.90
2017-11-10T03:30:37.084Z,23.77
2017-11-10T03:33:03.570Z,24.65
2017-11-10T03:35:30.013Z,22.95
2017-11-10T03:37:56.440Z,22.23
2017-11-10T03:40:22.942Z,23.87
2017-11-10T03:42:49.373Z,22.42
2017-11-10T03:45:15.828Z,24.15
2017-11-10T03:47:43.011Z,23.90
2017-11-10T03:50:09.569Z,23.35
2017-11-10T03:52:36.756Z,24.25
2017-11-10T03:55:03.204Z,32.45
2017-11-10T03:57:29.637Z,31.60
2017-11-10T03:59:56.116Z,27.17
2017-11-10T04:02:23.313Z,30.07
2017-11-10T04:04:49.756Z,26.23
2017-11-10T04:07:16.189Z,23.02
2017-11-10T04:09:42.676Z,22.17
2017-11-10T04:12:09.096Z,23.35
2017-11-10T04:14:36.584Z,21.95
2017-11-10T04:17:03.070Z,23.08
2017-11-10T04:19:29.481Z,32.57
2017-11-10T04:21:55.943Z,33.08
2017-11-10T04:24:23.102Z,26.83
2017-11-10T04:26:50.308Z,27.33
2017-11-10T04:29:16.745Z,26.17
2017-11-10T04:31:43.260Z,23.35
2017-11-10T04:34:09.765Z,37.75
2017-11-10T04:36:36.932Z,42.07
2017-11-10T04:39:03.443Z,35.00
2017-11-10T04:41:30.699Z,32.27
2017-11-10T04:43:57.157Z,26.98
2017-11-10T04:46:23.590Z,29.65
2017-11-10T04:48:50.029Z,31.42
2017-11-10T04:51:17.540Z,31.12
2017-11-10T04:53:44.005Z,26.85
2017-11-10T04:56:10.460Z,26.90
2017-11-10T04:58:36.941Z,27.83
2017-11-10T05:01:03.501Z,28.42
2017-11-10T05:03:30.702Z,27.50
2017-11-10T05:05:57.156Z,26.52
2017-11-10T05:08:23.596Z,27.10
2017-11-10T05:10:50.434Z,28.13
2017-11-10T05:13:17.625Z,29.25
2017-11-10T05:15:44.116Z,28.65
2017-11-10T05:18:10.589Z,28.60
2017-11-10T05:20:37.113Z,27.33
2017-11-10T05:23:03.624Z,28.65
2017-11-10T05:25:30.093Z,27.90
2017-11-10T05:27:56.600Z,28.05
2017-11-10T05:30:23.876Z,27.40
2017-11-10T05:32:50.369Z,26.67
2017-11-10T05:35:16.865Z,26.85
2017-11-10T05:37:43.409Z,24.77
2017-11-10T05:40:10.325Z,25.88
2017-11-10T05:42:36.968Z,25.40
2017-11-10T05:45:03.543Z,26.50
2017-11-10T05:47:30.028Z,25.73
2017-11-10T05:49:57.280Z,23.50
2017-11-10T05:52:24.493Z,25.27
2017-11-10T05:54:50.973Z,25.95
2017-11-10T05:57:17.519Z,25.67
2017-11-10T05:59:44.031Z,25.20
2017-11-10T06:02:11.280Z,23.95
2017-11-10T06:04:38.444Z,25.02
2017-11-10T06:07:05.636Z,24.92
2017-11-10T06:09:32.148Z,25.85
2017-11-10T06:11:58.595Z,27.23
2017-11-10T06:14:25.064Z,27.00
2017-11-10T06:16:51.513Z,27.95
2017-11-10T06:19:19.028Z,26.12
2017-11-10T06:21:45.777Z,27.48
2017-11-10T06:24:12.380Z,25.62
2017-11-10T06:26:38.883Z,26.12
2017-11-10T06:29:05.610Z,29.60
2017-11-10T06:31:35.168Z,28.00
2017-11-10T06:34:01.649Z,26.40
2017-11-10T06:36:28.148Z,25.58
2017-11-10T06:38:54.870Z,26.52
2017-11-10T06:41:21.461Z,27.15
2017-11-10T06:43:47.875Z,24.12
2017-11-10T06:46:14.512Z,26.05
2017-11-10T06:48:41.045Z,25.00
2017-11-10T06:51:07.539Z,23.52
2017-11-10T06:53:33.985Z,25.37
2017-11-10T06:56:00.437Z,22.50
2017-11-10T06:58:26.906Z,25.20
2017-11-10T07:00:53.445Z,26.07
2017-11-10T07:03:20.900Z,22.17
2017-11-10T07:05:48.101Z,22.17
2017-11-10T07:08:14.653Z,20.17
2017-11-10T07:10:41.448Z,19.23
2017-11-10T07:13:07.949Z,18.35
2017-11-10T07:15:34.420Z,18.73
2017-11-10T07:18:01.599Z,19.30
2017-11-10T07:20:28.076Z,17.67
2017-11-10T07:22:54.501Z,16.27
2017-11-10T07:25:20.888Z,17.77
2017-11-10T07:27:47.352Z,17.65
2017-11-10T07:30:13.789Z,17.00
2017-11-10T07:32:40.201Z,18.33
2017-11-10T07:35:06.625Z,18.07
2017-11-10T07:37:33.052Z,15.75
2017-11-10T07:39:59.479Z,16.17
2017-11-10T07:42:25.925Z,15.77
2017-11-10T07:44:52.319Z,16.00
2017-11-10T07:47:18.738Z,16.93
2017-11-10T07:49:45.279Z,16.40
2017-11-10T07:52:11.692Z,17.10
2017-11-10T07:54:38.485Z,16.15
2017-11-10T07:57:04.985Z,16.80
2017-11-10T07:59:31.461Z,14.75
2017-11-10T08:01:58.221Z,14.87
2017-11-10T08:04:25.685Z,14.00
2017-11-10T08:06:52.197Z,14.20
2017-11-10T08:09:18.791Z,14.50
2017-11-10T08:11:45.556Z,13.10
2017-11-10T08:14:12.013Z,12.60
2017-11-10T08:16:38.435Z,13.57
2017-11-10T08:19:04.877Z,14.50
2017-11-10T08:21:31.589Z,12.80
2017-11-10T08:23:58.028Z,12.80
2017-11-10T08:26:24.505Z,12.20
2017-11-10T08:28:50.933Z,12.97
2017-11-10T08:31:17.638Z,14.27
2017-11-10T08:33:44.113Z,14.50
2017-11-10T08:36:10.915Z,13.57
2017-11-10T08:38:37.533Z,13.27
2017-11-10T08:41:04.837Z,14.10
2017-11-10T08:43:31.329Z,18.60
2017-11-10T08:45:58.488Z,20.10
2017-11-10T08:48:25.705Z,19.27
2017-11-10T08:50:53.403Z,15.30
2017-11-10T08:53:20.188Z,14.63
2017-11-10T08:55:46.635Z,13.87
2017-11-10T08:58:13.025Z,14.40
2017-11-10T09:00:39.543Z,15.30
2017-11-10T09:03:06.716Z,16.70
2017-11-10T09:05:33.133Z,14.77
2017-11-10T09:08:00.343Z,15.17
2017-11-10T09:10:26.776Z,14.80
2017-11-10T09:12:53.460Z,17.03
2017-11-10T09:15:20.290Z,14.97
2017-11-10T09:17:48.129Z,16.90
2017-11-10T09:20:15.423Z,18.97
2017-11-10T09:22:42.022Z,21.90
2017-11-10T09:25:08.859Z,23.00
2017-11-10T09:27:35.637Z,21.50
2017-11-10T09:30:08.237Z,20.40
2017-11-10T09:35:38.549Z,22.83
2017-11-10T09:38:11.618Z,22.57
2017-11-10T09:40:43.299Z,26.33
2017-11-10T09:43:24.681Z,23.47
2017-11-10T09:45:54.777Z,25.37
2017-11-10T09:48:27.148Z,26.80
2017-11-10T09:50:59.946Z,26.30
2017-11-10T09:53:36.389Z,26.67
2017-11-10T09:56:09.224Z,25.17
2017-11-10T09:58:37.685Z,26.83
2017-11-10T10:01:10.338Z,26.23
2017-11-10T10:03:38.760Z,27.70
2017-11-10T10:06:06.257Z,25.70
2017-11-10T10:08:39.673Z,27.33
2017-11-10T10:11:18.789Z,27.97
2017-11-10T10:13:51.942Z,27.63
2017-11-10T10:16:24.605Z,28.00
2017-11-10T10:22:08.229Z,23.47
2017-11-10T10:24:34.685Z,22.87
2017-11-10T10:27:01.839Z,25.27
2017-11-10T10:29:28.616Z,26.80
2017-11-10T10:31:55.073Z,24.20
2017-11-10T10:34:21.665Z,24.10
2017-11-10T10:36:48.184Z,25.40
2017-11-10T10:39:15.437Z,23.90
2017-11-10T10:41:42.689Z,25.33
2017-11-10T10:44:09.875Z,25.50
2017-11-10T10:46:36.420Z,27.20
2017-11-10T10:49:03.337Z,26.03
2017-11-10T10:51:29.841Z,25.57
2017-11-10T10:53:56.985Z,26.60
2017-11-10T10:56:23.719Z,26.10
2017-11-10T10:58:50.962Z,26.60
2017-11-10T11:01:17.385Z,24.00
2017-11-10T11:03:43.788Z,26.10
2017-11-10T11:06:10.256Z,25.50
2017-11-10T11:08:36.922Z,26.83
2017-11-10T11:11:03.443Z,22.00
2017-11-10T11:13:29.943Z,22.90
2017-11-10T11:15:56.368Z,24.50
2017-11-10T11:18:22.789Z,21.40
2017-11-10T11:20:49.289Z,22.23
2017-11-10T11:23:15.787Z,22.93
2017-11-10T11:25:42.449Z,20.93
2017-11-10T11:28:08.912Z,20.30
2017-11-10T11:30:36.141Z,19.87
2017-11-10T11:33:02.665Z,20.00
2017-11-10T11:35:29.134Z,19.73
2017-11-10T11:37:56.290Z,18.57
2017-11-10T11:40:23.597Z,18.83
2017-11-10T11:42:50.242Z,20.27
2017-11-10T11:45:17.035Z,18.37
2017-11-10T11:47:43.568Z,18.33
2017-11-10T11:50:10.080Z,18.37
2017-11-10T11:52:37.254Z,19.20
2017-11-10T11:55:03.685Z,17.30
2017-11-10T11:57:30.404Z,17.13
2017-11-10T11:59:57.671Z,17.73
2017-11-10T12:02:24.198Z,16.40
2017-11-10T12:04:51.461Z,17.27
2017-11-10T12:07:18.001Z,17.10
2017-11-10T12:09:44.585Z,18.50
2017-11-10T12:12:11.488Z,16.03
2017-11-10T12:14:38.202Z,15.37
2017-11-10T12:17:05.009Z,17.30
2017-11-10T12:19:33.085Z,17.50
2017-11-10T12:21:59.819Z,17.67
2017-11-10T12:24:26.305Z,17.70
2017-11-10T12:26:52.706Z,15.13
2017-11-10T12:29:19.438Z,15.80
2017-11-10T12:31:45.997Z,17.63
2017-11-10T12:34:13.189Z,16.90
2017-11-10T12:36:39.645Z,17.70
2017-11-10T12:39:06.072Z,17.93
2017-11-10T12:41:32.580Z,16.67
2017-11-10T12:43:59.077Z,15.90
2017-11-10T12:46:26.280Z,13.40
2017-11-10T12:48:52.729Z,14.97
2017-11-10T12:51:25.361Z,13.37
2017-11-10T12:53:51.819Z,12.70
2017-11-10T12:56:18.310Z,12.90
2017-11-10T12:58:45.518Z,14.20
2017-11-10T13:01:12.792Z,13.83
2017-11-10T13:03:39.325Z,13.80
2017-11-10T13:06:05.866Z,13.17
2017-11-10T13:08:32.261Z,14.67
2017-11-10T13:10:58.744Z,13.37
2017-11-10T13:13:25.391Z,13.90
2017-11-10T13:15:51.907Z,12.77
2017-11-10T13:18:18.451Z,12.83
2017-11-10T13:20:45.716Z,13.27
2017-11-10T13:23:12.876Z,13.93
2017-11-10T13:25:40.040Z,12.63
2017-11-10T13:28:06.469Z,14.07
2017-11-10T13:30:32.968Z,15.20
2017-11-10T13:32:59.494Z,14.37
2017-11-10T13:35:25.944Z,15.07
2017-11-10T13:37:52.364Z,13.40
2017-11-10T13:40:18.816Z,15.97
2017-11-10T13:42:45.962Z,15.67
2017-11-10T13:45:12.433Z,14.30
2017-11-10T13:47:38.874Z,14.83
2017-11-10T13:50:05.451Z,13.63
2017-11-10T13:52:31.872Z,14.87
2017-11-10T13:54:58.298Z,13.73
2017-11-10T13:57:24.741Z,15.70
2017-11-10T13:59:51.289Z,14.57
2017-11-10T14:02:17.710Z,15.30
2017-11-10T14:04:44.172Z,16.30
2017-11-10T14:07:11.578Z,15.43
2017-11-10T14:09:37.976Z,13.33
2017-11-10T14:12:04.404Z,17.50
2017-11-10T14:14:30.902Z,14.50
2017-11-10T14:16:57.334Z,14.70
2017-11-10T14:19:23.756Z,15.03
2017-11-10T14:21:50.213Z,13.13
2017-11-10T14:24:16.639Z,14.13
2017-11-10T14:26:43.055Z,16.90
2017-11-10T14:29:09.497Z,14.07
2017-11-10T14:31:35.915Z,13.77
2017-11-10T14:34:02.369Z,12.10
2017-11-10T14:36:28.808Z,12.23
2017-11-10T14:38:55.210Z,12.53
2017-11-10T14:41:21.703Z,13.67
2017-11-10T14:43:48.824Z,13.00
2017-11-10T14:46:15.282Z,13.50
2017-11-10T14:48:42.462Z,13.20
2017-11-10T14:51:08.909Z,13.70
2017-11-10T14:53:35.704Z,11.90
2017-11-10T14:56:02.358Z,13.00
2017-11-10T14:58:28.794Z,13.50
2017-11-10T15:00:55.273Z,11.93
2017-11-10T15:03:22.429Z,13.10
2017-11-10T15:05:48.893Z,12.57
2017-11-10T15:08:16.058Z,13.00
2017-11-10T15:10:42.939Z,12.67
2017-11-10T15:13:09.440Z,12.60
2017-11-10T15:15:35.957Z,14.50
2017-11-10T15:18:03.162Z,12.30
2017-11-10T15:20:29.647Z,11.23
2017-11-10T15:22:56.822Z,12.70
2017-11-10T15:25:23.257Z,12.20
2017-11-10T15:27:49.676Z,11.63
2017-11-10T15:30:16.125Z,11.70
2017-11-10T15:32:43.171Z,11.23
2017-11-10T15:35:09.632Z,14.40
2017-11-10T15:37:36.100Z,13.30
2017-11-10T15:40:03.314Z,15.83
2017-11-10T15:42:29.765Z,15.37
2017-11-10T15:44:56.269Z,15.00
2017-11-10T15:47:22.749Z,15.27
2017-11-10T15:49:49.220Z,17.20
2017-11-10T15:52:15.685Z,18.07
2017-11-10T15:54:42.113Z,20.37
2017-11-10T15:57:08.584Z,20.80
2017-11-10T15:59:35.000Z,18.87
2017-11-10T16:02:01.438Z,20.20
2017-11-10T16:04:27.888Z,22.03
2017-11-10T16:06:55.043Z,18.67
2017-11-10T16:09:22.237Z,18.50
2017-11-10T16:11:48.658Z,17.70
2017-11-10T16:14:15.073Z,16.97
2017-11-10T16:16:41.509Z,18.90
2017-11-10T16:19:07.909Z,16.80
2017-11-10T16:21:35.092Z,17.20
2017-11-10T16:24:01.540Z,16.97
2017-11-10T16:26:27.993Z,18.33
2017-11-10T16:28:54.395Z,18.33
2017-11-10T16:31:20.866Z,20.60
2017-11-10T16:33:47.272Z,20.45
2017-11-10T16:36:13.662Z,23.50
2017-11-10T16:38:40.833Z,23.33
2017-11-10T16:41:07.429Z,22.27
2017-11-10T16:43:34.198Z,26.25
2017-11-10T16:46:00.789Z,27.05
2017-11-10T16:48:30.245Z,24.15
2017-11-10T16:50:58.394Z,25.42
2017-11-10T16:53:25.583Z,22.60
2017-11-10T16:55:52.092Z,22.65
2017-11-10T16:58:19.249Z,22.58
2017-11-10T17:00:46.442Z,22.52
2017-11-10T17:03:12.885Z,25.37
2017-11-10T17:05:39.366Z,24.95
2017-11-10T17:08:06.596Z,24.23
2017-11-10T17:10:33.052Z,22.83
2017-11-10T17:13:00.233Z,26.70
2017-11-10T17:15:26.681Z,23.98
2017-11-10T17:17:53.113Z,23.77
2017-11-10T17:20:19.626Z,24.90
2017-11-10T17:22:46.109Z,31.85
2017-11-10T17:25:12.505Z,26.95
2017-11-10T17:27:38.969Z,24.20
2017-11-10T17:30:05.442Z,22.33
2017-11-10T17:32:31.923Z,23.75
2017-11-10T17:34:58.402Z,23.35
2017-11-10T17:37:25.542Z,22.17
2017-11-10T17:39:52.014Z,23.25
2017-11-10T17:42:18.473Z,23.02
2017-11-10T17:44:44.946Z,23.15
2017-11-10T17:47:11.376Z,23.25
2017-11-10T17:49:37.808Z,22.30
2017-11-10T17:52:04.263Z,22.40
2017-11-10T17:54:30.706Z,22.42
2017-11-10T17:56:58.117Z,24.30
2017-11-10T17:59:24.593Z,24.58
2017-11-10T18:01:51.062Z,24.75
2017-11-10T18:04:17.483Z,22.75
2017-11-10T18:06:43.949Z,23.10
2017-11-10T18:09:10.443Z,23.80
2017-11-10T18:11:36.911Z,26.02
2017-11-10T18:14:03.370Z,21.67
2017-11-10T18:16:29.762Z,22.83
2017-11-10T18:18:56.161Z,20.40
2017-11-10T18:21:22.655Z,20.85
2017-11-10T18:23:49.069Z,21.73
2017-11-10T18:26:15.509Z,23.85
2017-11-10T18:28:49.778Z,25.70
2017-11-10T18:31:16.196Z,24.65
2017-11-10T18:33:43.356Z,26.55
2017-11-10T18:36:10.585Z,26.90
2017-11-10T18:38:37.005Z,28.08
2017-11-10T18:41:03.615Z,27.30
2017-11-10T18:43:30.094Z,27.27
2017-11-10T18:45:56.521Z,27.75
2017-11-10T18:48:28.873Z,28.23
2017-11-10T18:50:55.292Z,31.70
2017-11-10T18:53:25.674Z,27.23
2017-11-10T18:55:52.848Z,26.92
2017-11-10T18:58:19.289Z,29.45
2017-11-10T19:00:45.767Z,33.35
2017-11-10T19:03:12.236Z,31.17
2017-11-10T19:05:38.680Z,33.20
2017-11-10T19:08:05.156Z,35.28
2017-11-10T19:10:31.597Z,34.60
2017-11-10T19:12:57.995Z,35.25
2017-11-10T19:15:24.461Z,33.45
2017-11-10T19:17:50.894Z,30.83
2017-11-10T19:20:17.323Z,34.58
2017-11-10T19:22:43.734Z,35.40
2017-11-10T19:25:10.157Z,31.17
2017-11-10T19:27:36.604Z,29.40
2017-11-10T19:30:03.106Z,28.55
2017-11-10T19:32:29.525Z,28.77
2017-11-10T19:34:56.739Z,26.77
2017-11-10T19:37:23.163Z,27.45
2017-11-10T19:40:01.918Z,25.65
2017-11-10T19:42:29.081Z,28.38
2017-11-10T19:44:56.400Z,28.85
2017-11-10T19:47:22.859Z,27.70
2017-11-10T19:49:53.709Z,30.17
2017-11-10T19:52:20.185Z,28.83
2017-11-10T19:54:46.637Z,31.52
2017-11-10T19:57:13.040Z,29.25
2017-11-10T19:59:39.469Z,27.25
2017-11-10T20:02:05.889Z,30.37
2017-11-10T20:04:32.313Z,30.23
2017-11-10T20:06:58.735Z,33.70
2017-11-10T20:09:25.225Z,36.40
2017-11-10T20:11:51.716Z,33.17
2017-11-10T20:14:18.133Z,32.15
2017-11-10T20:16:45.324Z,31.15
2017-11-10T20:19:11.812Z,34.35
2017-11-10T20:21:38.973Z,36.35
2017-11-10T20:24:07.169Z,35.22
2017-11-10T20:26:33.596Z,33.70
2017-11-10T20:29:00.027Z,35.47
2017-11-10T20:31:26.433Z,40.33
2017-11-10T20:33:53.590Z,38.78
2017-11-10T20:36:20.773Z,40.95
2017-11-10T20:38:47.196Z,37.03
2017-11-10T20:41:14.571Z,37.40
2017-11-10T20:43:40.999Z,36.78
2017-11-10T20:46:07.421Z,38.75
2017-11-10T20:48:33.914Z,36.50
2017-11-10T20:51:00.329Z,38.67
2017-11-10T20:53:27.021Z,35.60
2017-11-10T20:55:53.450Z,35.05
2017-11-10T20:58:19.843Z,34.65
2017-11-10T21:00:46.248Z,33.78
2017-11-10T21:03:12.681Z,36.10
2017-11-10T21:05:39.093Z,33.42
2017-11-10T21:08:06.274Z,32.45
2017-11-10T21:10:32.705Z,32.40
2017-11-10T21:12:59.400Z,31.87
2017-11-10T21:15:25.849Z,33.95
2017-11-10T21:17:52.282Z,33.25
2017-11-10T21:20:18.739Z,33.88
2017-11-10T21:22:45.224Z,33.08
2017-11-10T21:25:12.396Z,34.65
2017-11-10T21:27:38.824Z,33.45
2017-11-10T21:30:05.274Z,31.25
2017-11-10T21:32:31.709Z,31.08
2017-11-10T21:34:58.113Z,30.73
2017-11-10T21:37:25.309Z,32.95
2017-11-10T21:39:51.725Z,33.40
2017-11-10T21:42:18.179Z,33.78
2017-11-10T21:44:44.637Z,31.95
2017-11-10T21:47:11.097Z,31.37
2017-11-10T21:49:38.269Z,32.22
2017-11-10T21:52:05.558Z,33.30
2017-11-10T21:54:32.015Z,31.50
2017-11-10T21:56:59.206Z,30.83
2017-11-10T21:59:25.664Z,30.52
2017-11-10T22:01:52.861Z,28.33
2017-11-10T22:04:20.051Z,26.62
2017-11-10T22:06:46.480Z,24.77
2017-11-10T22:09:12.903Z,22.08
2017-11-10T22:11:39.318Z,22.65
2017-11-10T22:14:05.789Z,24.60
2017-11-10T22:16:32.186Z,23.73
2017-11-10T22:18:58.643Z,22.95
2017-11-10T22:21:25.153Z,23.23
2017-11-10T22:23:51.613Z,24.63
2017-11-10T22:26:18.005Z,21.12
2017-11-10T22:28:45.185Z,23.02
2017-11-10T22:31:11.593Z,19.75
2017-11-10T22:33:38.772Z,20.37
2017-11-10T22:36:05.209Z,19.62
2017-11-10T22:38:31.608Z,20.20
2017-11-10T22:40:58.831Z,21.98
2017-11-10T22:43:26.158Z,21.55
2017-11-10T22:45:52.578Z,21.70
2017-11-10T22:48:18.992Z,20.95
2017-11-10T22:50:45.386Z,23.12
2017-11-10T22:53:12.075Z,18.30
2017-11-10T22:55:38.485Z,17.27
2017-11-10T22:58:05.624Z,17.05
2017-11-10T23:00:32.048Z,16.92
2017-11-10T23:02:58.465Z,15.43
2017-11-10T23:05:24.881Z,15.70
2017-11-10T23:07:51.276Z,15.23
2017-11-10T23:10:17.715Z,16.87
2017-11-10T23:12:44.121Z,15.98
2017-11-10T23:15:10.585Z,16.25
2017-11-10T23:17:37.032Z,16.05
2017-11-10T23:20:03.452Z,16.55
2017-11-10T23:22:29.912Z,17.65
2017-11-10T23:24:56.297Z,14.87
2017-11-10T23:27:23.473Z,13.75
2017-11-10T23:29:49.922Z,15.00
2017-11-10T23:32:16.345Z,15.15
2017-11-10T23:34:42.740Z,14.45
2017-11-10T23:37:09.889Z,13.82
2017-11-10T23:39:37.025Z,13.70
2017-11-10T23:42:03.464Z,13.82
2017-11-10T23:44:29.877Z,14.30
2017-11-10T23:46:56.313Z,14.65
2017-11-10T23:49:22.721Z,14.30
2017-11-10T23:51:49.153Z,12.45
2017-11-10T23:54:15.561Z,12.65
2017-11-10T23:56:41.993Z,13.43
2017-11-10T23:59:08.392Z,13.77
